Hauptseite
METAR-TAF:

METAR-TAF

Flughäfen :

Cuneo, Italien

Flughafen Cuneo

Breite: 44-32-47N, Länge: 007-37-20E, Höhe: 386 m

Beobachtung

Neuester Wetterbericht von vor 1 Stunde und 59 Minuten, um 21:50 UTC
Wind 3 kt aus Süd/Südost
Temperatur -2°C
Luftfeuchtigkeit 86%
Luftdruck 1011 hPa
Sichtweite 10 km oder mehr
keine Wolken unter 1500 m und keine Kumulonimbus oder Gewitterwolken

METAR: LIMZ 182150Z 16003KT CAVOK M02/M04 Q1011

Zeit: 00:49 (23:49 UTC)

Prognose

Neuester Wetterbericht von vor 49 Minuten, um 23:00 UTC
Gültige Prognose vom 19 um 00 UTC bis 19 um 24 UTC
Wind 5 kt aus unterschiedlichen Richtungen
Sichtweite 10 km oder mehr
keine Wolken unter 1500 m und keine Kumulonimbus oder Gewitterwolken

TAF: LIMZ 182300Z 1900/1924 VRB05KT CAVOK

Wetterbeobachtungen und Prognosen von mehr als 4000 Flughäfen (METAR und TAF Bericht).

Die verfügbaren Stationen werden durch gelbe und rote Markierungen auf der Karte dargestellt.

Führen Sie die Maus auf sie, um den Namen der Station zu sehen.

Darauf klicken, um die Beobachtung von Wetterbeobachtungen und Prognosen zu sehen.

Um die Karte zu ändern : klicken Sie auf den grünen Tasten mit einem schwarzen Kreuz Zum Vergrößern, auf den grünen Button mit einem Gedankenstrich zu verkleinern, oder auf die grünen Pfeile für benachbarte Karten.


METAR-TAF: